createdAt,value
2018-02-22T00:00:44.216Z,-0.25
2018-02-22T00:03:13.455Z,-0.22
2018-02-22T00:05:42.702Z,-0.22
2018-02-22T00:08:12.726Z,-0.28
2018-02-22T00:10:41.970Z,-0.28
2018-02-22T00:13:11.206Z,-0.31
2018-02-22T00:15:41.264Z,-0.35
2018-02-22T00:18:10.504Z,-0.34
2018-02-22T00:20:39.755Z,-0.35
2018-02-22T00:23:08.985Z,-0.41
2018-02-22T00:25:38.231Z,-0.38
2018-02-22T00:28:07.467Z,-0.46
2018-02-22T00:30:36.689Z,-0.51
2018-02-22T00:33:06.091Z,-0.50
2018-02-22T00:35:36.098Z,-0.54
2018-02-22T00:38:05.327Z,-0.54
2018-02-22T00:40:35.415Z,-0.59
2018-02-22T00:43:05.504Z,-0.61
2018-02-22T00:45:35.460Z,-0.64
2018-02-22T00:48:04.698Z,-0.64
2018-02-22T00:50:34.064Z,-0.70
2018-02-22T00:53:04.350Z,-0.68
2018-02-22T00:55:33.566Z,-0.74
2018-02-22T00:58:02.893Z,-0.75
2018-02-22T01:00:32.885Z,-0.76
2018-02-22T01:03:02.151Z,-0.76
2018-02-22T01:05:32.372Z,-0.72
2018-02-22T01:08:01.593Z,-0.69
2018-02-22T01:10:30.869Z,-0.70
2018-02-22T01:13:00.086Z,-0.75
2018-02-22T01:15:30.250Z,-0.74
2018-02-22T01:18:00.298Z,-0.71
2018-02-22T01:20:29.555Z,-0.75
2018-02-22T01:22:59.722Z,-0.73
2018-02-22T01:25:28.959Z,-0.73
2018-02-22T01:27:58.266Z,-0.72
2018-02-22T01:30:27.641Z,-0.73
2018-02-22T01:32:56.875Z,-0.71
2018-02-22T01:35:26.896Z,-0.72
2018-02-22T01:37:56.973Z,-0.73
2018-02-22T01:40:26.229Z,-0.71
2018-02-22T01:42:56.326Z,-0.74
2018-02-22T01:45:25.590Z,-0.78
2018-02-22T01:47:54.799Z,-0.81
2018-02-22T01:50:24.143Z,-0.83
2018-02-22T01:52:54.302Z,-0.95
2018-02-22T01:55:23.563Z,-1.00
2018-02-22T01:57:52.758Z,-0.98
2018-02-22T02:00:22.260Z,-0.98
2018-02-22T02:02:52.274Z,-0.98
2018-02-22T02:05:22.336Z,-0.99
2018-02-22T02:07:51.550Z,-1.03
2018-02-22T02:10:20.798Z,-1.05
2018-02-22T02:12:50.150Z,-1.08
2018-02-22T02:15:19.403Z,-1.13
2018-02-22T02:17:48.650Z,-1.17
2018-02-22T02:20:17.887Z,-1.18
2018-02-22T02:22:47.116Z,-1.23
2018-02-22T02:25:16.344Z,-1.27
2018-02-22T02:27:50.947Z,-1.26
2018-02-22T02:30:20.186Z,-1.32
2018-02-22T02:32:50.195Z,-1.35
2018-02-22T02:35:19.451Z,-1.34
2018-02-22T02:37:48.807Z,-1.34
2018-02-22T02:40:18.315Z,-1.36
2018-02-22T02:42:48.342Z,-1.39
2018-02-22T02:45:17.572Z,-1.37
2018-02-22T02:47:46.807Z,-1.41
2018-02-22T02:50:16.075Z,-1.38
2018-02-22T02:52:45.327Z,-1.37
2018-02-22T02:55:14.566Z,-1.38
2018-02-22T02:57:44.672Z,-1.34
2018-02-22T03:00:13.900Z,-1.37
2018-02-22T03:02:43.363Z,-1.39
2018-02-22T03:05:12.583Z,-1.34
2018-02-22T03:07:41.807Z,-1.37
2018-02-22T03:10:11.083Z,-1.42
2018-02-22T03:12:40.309Z,-1.42
2018-02-22T03:15:09.559Z,-1.43
2018-02-22T03:17:38.805Z,-1.42
2018-02-22T03:20:08.056Z,-1.39
2018-02-22T03:22:37.316Z,-1.41
2018-02-22T03:25:06.526Z,-1.42
2018-02-22T03:27:35.981Z,-1.44
2018-02-22T03:30:05.233Z,-1.47
2018-02-22T03:32:34.709Z,-1.50
2018-02-22T03:35:03.959Z,-1.51
2018-02-22T03:37:33.203Z,-1.50
2018-02-22T03:40:02.431Z,-1.49
2018-02-22T03:42:31.765Z,-1.49
2018-02-22T03:45:01.039Z,-1.48
2018-02-22T03:47:30.270Z,-1.48
2018-02-22T03:49:59.605Z,-1.46
2018-02-22T03:52:29.600Z,-1.42
2018-02-22T03:54:58.860Z,-1.41
2018-02-22T03:57:28.092Z,-1.38
2018-02-22T03:59:57.344Z,-1.35
2018-02-22T04:02:26.832Z,-1.36
2018-02-22T04:04:56.856Z,-1.37
2018-02-22T04:07:26.851Z,-1.36
2018-02-22T04:09:56.872Z,-1.35
2018-02-22T04:12:27.105Z,-1.40
2018-02-22T04:14:57.216Z,-1.39
2018-02-22T04:17:27.251Z,-1.37
2018-02-22T04:19:56.507Z,-1.38
2018-02-22T04:22:25.745Z,-1.40
2018-02-22T04:24:54.974Z,-1.37
2018-02-22T04:27:24.260Z,-1.35
2018-02-22T04:29:53.490Z,-1.38
2018-02-22T04:32:22.788Z,-1.37
2018-02-22T04:34:52.183Z,-1.40
2018-02-22T04:37:21.420Z,-1.40
2018-02-22T04:39:50.652Z,-1.40
2018-02-22T04:42:19.927Z,-1.32
2018-02-22T04:44:49.910Z,-1.33
2018-02-22T04:47:19.135Z,-1.37
2018-02-22T04:49:49.334Z,-1.37
2018-02-22T04:52:18.648Z,-1.40
2018-02-22T04:54:47.869Z,-1.43
2018-02-22T04:57:17.854Z,-1.38
2018-02-22T04:59:47.091Z,-1.42
2018-02-22T05:02:16.387Z,-1.44
2018-02-22T05:04:45.788Z,-1.42
2018-02-22T05:07:15.763Z,-1.41
2018-02-22T05:09:46.590Z,-1.38
2018-02-22T05:12:15.835Z,-1.39
2018-02-22T05:14:45.189Z,-1.39
2018-02-22T05:17:14.480Z,-1.38
2018-02-22T05:19:43.734Z,-1.37
2018-02-22T05:22:13.714Z,-1.39
2018-02-22T05:24:42.955Z,-1.40
2018-02-22T05:27:12.168Z,-1.42
2018-02-22T05:29:42.183Z,-1.39
2018-02-22T05:32:11.423Z,-1.41
2018-02-22T05:34:40.692Z,-1.44
2018-02-22T05:37:09.989Z,-1.43
2018-02-22T05:39:39.218Z,-1.42
2018-02-22T05:42:08.480Z,-1.42
2018-02-22T05:44:37.699Z,-1.42
2018-02-22T05:47:07.012Z,-1.42
2018-02-22T05:49:36.451Z,-1.41
2018-02-22T05:52:05.628Z,-1.44
2018-02-22T05:54:35.636Z,-1.46
2018-02-22T05:57:05.326Z,-1.46
2018-02-22T05:59:34.584Z,-1.49
2018-02-22T06:02:03.810Z,-1.49
2018-02-22T06:04:33.051Z,-1.54
2018-02-22T06:07:02.299Z,-1.56
2018-02-22T06:09:31.520Z,-1.57
2018-02-22T06:12:00.776Z,-1.58
2018-02-22T06:14:30.002Z,-1.56
2018-02-22T06:16:59.270Z,-1.58
2018-02-22T06:19:29.249Z,-1.58
2018-02-22T06:21:58.488Z,-1.62
2018-02-22T06:24:27.727Z,-1.59
2018-02-22T06:26:56.957Z,-1.62
2018-02-22T06:29:27.010Z,-1.57
2018-02-22T06:31:56.247Z,-1.58
2018-02-22T06:34:25.521Z,-1.62
2018-02-22T06:36:54.740Z,-1.63
2018-02-22T06:39:24.000Z,-1.57
2018-02-22T06:41:53.269Z,-1.54
2018-02-22T06:44:23.253Z,-1.58
2018-02-22T06:46:53.243Z,-1.59
2018-02-22T06:49:22.601Z,-1.60
2018-02-22T06:51:52.726Z,-1.53
2018-02-22T06:54:22.722Z,-1.53
2018-02-22T06:56:52.718Z,-1.50
2018-02-22T06:59:22.121Z,-1.48
2018-02-22T07:01:51.503Z,-1.46
2018-02-22T07:04:20.783Z,-1.40
2018-02-22T07:06:50.042Z,-1.40
2018-02-22T07:09:20.066Z,-1.41
2018-02-22T07:11:50.088Z,-1.40
2018-02-22T07:14:20.277Z,-1.35
2018-02-22T07:16:49.574Z,-1.35
2018-02-22T07:19:18.946Z,-1.32
2018-02-22T07:21:48.216Z,-1.30
2018-02-22T07:24:17.446Z,-1.27
2018-02-22T07:26:46.817Z,-1.23
2018-02-22T07:29:16.081Z,-1.22
2018-02-22T07:31:46.098Z,-1.23
2018-02-22T07:34:15.346Z,-1.21
2018-02-22T07:36:44.557Z,-1.16
2018-02-22T07:39:13.790Z,-1.14
2018-02-22T07:41:43.038Z,-1.12
2018-02-22T07:44:12.257Z,-1.07
2018-02-22T07:46:41.487Z,-1.05
2018-02-22T07:49:10.732Z,-1.03
2018-02-22T07:51:39.996Z,-1.01
2018-02-22T07:54:10.020Z,-1.00
2018-02-22T07:56:40.020Z,-0.98
2018-02-22T07:59:10.039Z,-0.94
2018-02-22T08:01:40.024Z,-0.91
2018-02-22T08:04:09.284Z,-0.90
2018-02-22T08:06:38.497Z,-0.87
2018-02-22T08:09:07.727Z,-0.82
2018-02-22T08:11:36.951Z,-0.81
2018-02-22T08:14:06.190Z,-0.77
2018-02-22T08:16:35.526Z,-0.70
2018-02-22T08:19:04.754Z,-0.62
2018-02-22T08:21:34.447Z,-0.61
2018-02-22T08:24:04.459Z,-0.52
2018-02-22T08:26:33.680Z,-0.52
2018-02-22T08:29:02.902Z,-0.51
2018-02-22T08:31:32.171Z,-0.50
2018-02-22T08:34:01.381Z,-0.50
2018-02-22T08:36:30.675Z,-0.45
2018-02-22T08:39:00.800Z,-0.32
2018-02-22T08:41:30.057Z,-0.21
2018-02-22T08:43:59.303Z,-0.10
2018-02-22T08:46:28.744Z,-0.03
2018-02-22T08:48:57.939Z,-0.01
2018-02-22T08:51:27.197Z,-0.02
2018-02-22T08:53:56.558Z,-0.04
2018-02-22T08:56:25.802Z,-0.05
2018-02-22T08:58:55.783Z,-0.03
2018-02-22T09:01:25.024Z,0.02
2018-02-22T09:03:54.291Z,0.01
2018-02-22T09:06:24.328Z,0.05
2018-02-22T09:08:53.643Z,0.08
2018-02-22T09:11:22.859Z,0.14
2018-02-22T09:13:52.099Z,0.17
2018-02-22T09:16:22.094Z,0.19
2018-02-22T09:18:51.309Z,0.28
2018-02-22T09:21:20.637Z,0.39
2018-02-22T09:23:50.032Z,0.40
2018-02-22T09:26:19.260Z,0.44
2018-02-22T09:28:48.540Z,0.54
2018-02-22T09:31:18.512Z,0.61
2018-02-22T09:33:48.522Z,0.70
2018-02-22T09:36:17.741Z,0.81
2018-02-22T09:38:47.758Z,0.96
2018-02-22T09:41:17.131Z,1.09
2018-02-22T09:43:46.873Z,1.17
2018-02-22T09:46:16.080Z,1.20
2018-02-22T09:48:46.277Z,1.23
2018-02-22T09:51:15.512Z,1.30
2018-02-22T09:53:45.739Z,1.28
2018-02-22T09:56:15.715Z,1.30
2018-02-22T09:58:44.942Z,1.43
2018-02-22T10:01:14.174Z,1.49
2018-02-22T10:03:43.371Z,1.55
2018-02-22T10:06:12.655Z,1.61
2018-02-22T10:08:42.696Z,1.74
2018-02-22T10:11:12.115Z,1.80
2018-02-22T10:13:41.332Z,1.77
2018-02-22T10:16:11.343Z,1.79
2018-02-22T10:18:40.598Z,1.76
2018-02-22T10:21:10.558Z,1.73
2018-02-22T10:23:41.198Z,1.83
2018-02-22T10:26:11.215Z,1.96
2018-02-22T10:28:41.232Z,2.11
2018-02-22T10:31:11.336Z,2.13
2018-02-22T10:33:40.563Z,2.26
2018-02-22T10:36:09.842Z,2.32
2018-02-22T10:38:39.863Z,2.32
2018-02-22T10:41:09.839Z,2.41
2018-02-22T10:43:39.072Z,2.40
2018-02-22T10:46:08.285Z,2.42
2018-02-22T10:48:38.293Z,2.50
2018-02-22T10:51:08.268Z,2.54
2018-02-22T10:53:37.493Z,2.60
2018-02-22T10:56:07.511Z,2.60
2018-02-22T10:58:37.515Z,2.71
2018-02-22T11:01:12.341Z,2.93
2018-02-22T11:03:42.143Z,3.07
2018-02-22T11:06:11.406Z,3.23
2018-02-22T11:08:40.630Z,3.16
2018-02-22T11:11:09.851Z,3.11
2018-02-22T11:13:39.060Z,3.17
2018-02-22T11:16:09.054Z,3.19
2018-02-22T11:18:38.260Z,3.20
2018-02-22T11:21:07.487Z,3.28
2018-02-22T11:23:37.574Z,3.36
2018-02-22T11:26:06.842Z,3.43
2018-02-22T11:28:37.117Z,3.55
2018-02-22T11:31:06.350Z,3.60
2018-02-22T11:33:35.586Z,3.52
2018-02-22T11:36:04.803Z,3.53
2018-02-22T11:38:34.050Z,3.55
2018-02-22T11:41:04.005Z,3.40
2018-02-22T11:43:33.251Z,3.48
2018-02-22T11:46:02.600Z,3.41
2018-02-22T11:48:31.879Z,3.36
2018-02-22T11:51:01.148Z,3.25
2018-02-22T11:53:30.343Z,3.18
2018-02-22T11:55:59.575Z,3.13
2018-02-22T11:58:28.805Z,3.11
2018-02-22T12:00:58.826Z,3.13
2018-02-22T12:03:28.035Z,3.23
2018-02-22T12:05:57.355Z,3.22
2018-02-22T12:08:26.808Z,3.26
2018-02-22T12:10:56.026Z,3.29
2018-02-22T12:13:26.139Z,3.24
2018-02-22T12:15:56.126Z,3.20
2018-02-22T12:18:25.344Z,3.19
2018-02-22T12:20:54.571Z,3.25
2018-02-22T12:23:24.764Z,3.36
2018-02-22T12:25:55.475Z,3.45
2018-02-22T12:28:24.725Z,3.50
2018-02-22T12:30:54.711Z,3.54
2018-02-22T12:33:23.926Z,3.53
2018-02-22T12:35:53.173Z,3.56
2018-02-22T12:38:22.559Z,3.59
2018-02-22T12:40:51.763Z,3.63
2018-02-22T12:43:20.996Z,3.68
2018-02-22T12:45:50.204Z,3.76
2018-02-22T12:48:19.466Z,3.80
2018-02-22T12:50:49.391Z,3.88
2018-02-22T12:53:18.655Z,3.92
2018-02-22T12:55:47.871Z,3.84
2018-02-22T12:58:17.108Z,3.84
2018-02-22T13:00:46.364Z,3.84
2018-02-22T13:03:15.591Z,3.80
2018-02-22T13:05:44.975Z,3.79
2018-02-22T13:08:14.189Z,3.85
2018-02-22T13:10:43.424Z,3.95
2018-02-22T13:13:13.399Z,4.01
2018-02-22T13:15:42.607Z,3.91
2018-02-22T13:18:11.836Z,3.92
2018-02-22T13:20:41.814Z,3.90
2018-02-22T13:23:11.097Z,3.89
2018-02-22T13:25:40.308Z,3.92
2018-02-22T13:28:09.542Z,3.99
2018-02-22T13:30:39.572Z,4.04
2018-02-22T13:33:27.243Z,4.01
2018-02-22T13:35:56.451Z,3.94
2018-02-22T13:52:05.098Z,3.63
2018-02-22T13:54:34.435Z,3.70
2018-02-22T13:57:11.655Z,3.59
2018-02-22T13:59:40.876Z,3.58
2018-02-22T14:02:27.773Z,3.65
2018-02-22T14:04:57.774Z,3.71
2018-02-22T14:07:27.003Z,3.72
2018-02-22T14:09:56.992Z,3.77
2018-02-22T14:12:26.228Z,3.75
2018-02-22T14:14:55.439Z,3.78
2018-02-22T14:17:24.822Z,3.85
2018-02-22T14:19:54.012Z,3.87
2018-02-22T14:22:23.287Z,3.87
2018-02-22T14:24:53.319Z,3.79
2018-02-22T14:27:23.347Z,3.74
2018-02-22T14:29:53.461Z,3.69
2018-02-22T14:32:22.627Z,3.64
2018-02-22T14:34:51.823Z,3.67
2018-02-22T14:37:21.092Z,3.66
2018-02-22T14:39:50.311Z,3.63
2018-02-22T14:42:19.606Z,3.61
2018-02-22T14:44:48.821Z,3.61
2018-02-22T14:47:18.035Z,3.61
2018-02-22T14:49:47.255Z,3.57
2018-02-22T14:52:16.465Z,3.56
2018-02-22T14:54:45.687Z,3.50
2018-02-22T14:57:14.938Z,3.48
2018-02-22T14:59:45.234Z,3.49
2018-02-22T15:02:20.007Z,3.54
2018-02-22T15:04:49.258Z,3.56
2018-02-22T15:07:18.481Z,3.52
2018-02-22T15:09:48.456Z,3.51
2018-02-22T15:12:17.758Z,3.56
2018-02-22T15:14:47.113Z,3.51
2018-02-22T15:17:17.099Z,3.44
2018-02-22T15:19:46.329Z,3.39
2018-02-22T15:22:16.306Z,3.37
2018-02-22T15:24:45.579Z,3.35
2018-02-22T15:27:14.849Z,3.25
2018-02-22T15:29:44.070Z,3.17
2018-02-22T15:32:13.318Z,3.08
2018-02-22T15:34:43.300Z,3.05
2018-02-22T15:37:12.629Z,3.08
2018-02-22T15:39:42.633Z,3.09
2018-02-22T15:42:11.894Z,3.11
2018-02-22T15:44:41.086Z,3.14
2018-02-22T15:47:10.359Z,3.15
2018-02-22T15:49:40.324Z,3.14
2018-02-22T15:52:09.554Z,3.14
2018-02-22T15:54:39.545Z,3.14
2018-02-22T15:57:09.630Z,3.10
2018-02-22T15:59:38.990Z,3.08
2018-02-22T16:02:09.143Z,3.02
2018-02-22T16:04:38.381Z,2.94
2018-02-22T16:07:07.595Z,2.92
2018-02-22T16:09:36.839Z,2.86
2018-02-22T16:12:06.155Z,2.81
2018-02-22T16:14:35.392Z,2.75
2018-02-22T16:17:04.687Z,2.68
2018-02-22T16:19:33.923Z,2.61
2018-02-22T16:22:03.133Z,2.57
2018-02-22T16:24:32.383Z,2.54
2018-02-22T16:27:02.412Z,2.50
2018-02-22T16:29:32.410Z,2.47
2018-02-22T16:32:03.150Z,2.40
2018-02-22T16:34:32.511Z,2.34
2018-02-22T16:37:01.848Z,2.28
2018-02-22T16:39:31.373Z,2.27
2018-02-22T16:42:01.471Z,2.22
2018-02-22T16:44:30.692Z,2.19
2018-02-22T16:47:00.708Z,2.15
2018-02-22T16:49:29.919Z,2.10
2018-02-22T16:51:59.395Z,2.06
2018-02-22T16:54:30.197Z,2.03
2018-02-22T16:57:03.206Z,1.97
2018-02-22T16:59:32.474Z,1.97
2018-02-22T17:02:01.747Z,1.94
2018-02-22T17:04:31.002Z,1.89
2018-02-22T17:07:00.219Z,1.87
2018-02-22T17:09:30.247Z,1.83
2018-02-22T17:11:59.575Z,1.79
2018-02-22T17:14:28.818Z,1.74
2018-02-22T17:16:58.055Z,1.70
2018-02-22T17:19:27.291Z,1.68
2018-02-22T17:21:56.534Z,1.65
2018-02-22T17:24:26.541Z,1.64
2018-02-22T17:27:02.077Z,1.62
2018-02-22T17:29:37.606Z,1.56
2018-02-22T17:32:12.460Z,1.53
2018-02-22T17:34:41.695Z,1.46
2018-02-22T17:37:13.619Z,1.46
2018-02-22T17:39:57.607Z,1.42
2018-02-22T17:42:26.836Z,1.37
2018-02-22T17:44:56.068Z,1.35
2018-02-22T17:47:26.062Z,1.31
2018-02-22T17:49:56.116Z,1.30
2018-02-22T17:52:25.613Z,1.30
2018-02-22T17:54:55.716Z,1.28
2018-02-22T17:57:24.964Z,1.24
2018-02-22T17:59:54.243Z,1.23
2018-02-22T18:02:23.500Z,1.20
2018-02-22T18:04:53.579Z,1.19
2018-02-22T18:07:22.824Z,1.15
2018-02-22T18:09:52.816Z,1.13
2018-02-22T18:12:22.048Z,1.10
2018-02-22T18:14:51.376Z,1.10
2018-02-22T18:17:20.600Z,1.10
2018-02-22T18:19:50.025Z,1.08
2018-02-22T18:22:19.586Z,1.05
2018-02-22T18:24:49.559Z,1.05
2018-02-22T18:27:19.558Z,1.01
2018-02-22T18:29:48.976Z,1.02
2018-02-22T18:32:18.176Z,0.96
2018-02-22T18:34:47.379Z,0.95
2018-02-22T18:50:44.027Z,0.82
2018-02-22T18:53:13.237Z,0.85
2018-02-22T18:55:42.443Z,0.83
2018-02-22T18:58:11.901Z,0.80
2018-02-22T19:00:41.895Z,0.81
2018-02-22T19:03:11.168Z,0.77
2018-02-22T19:05:40.396Z,0.76
2018-02-22T19:08:09.642Z,0.76
2018-02-22T19:10:38.870Z,0.72
2018-02-22T19:13:08.925Z,0.69
2018-02-22T19:15:38.160Z,0.68
2018-02-22T19:18:07.434Z,0.70
2018-02-22T19:20:36.735Z,0.71
2018-02-22T19:23:06.900Z,0.71
2018-02-22T19:25:36.188Z,0.73
2018-02-22T19:28:05.480Z,0.73
2018-02-22T19:30:34.752Z,0.73
2018-02-22T19:33:03.980Z,0.73
2018-02-22T19:35:33.224Z,0.75
2018-02-22T19:38:02.469Z,0.73
2018-02-22T19:40:31.740Z,0.74
2018-02-22T19:43:01.757Z,0.75
2018-02-22T19:45:32.016Z,0.66
2018-02-22T19:48:01.270Z,0.66
2018-02-22T19:50:30.530Z,0.63
2018-02-22T19:52:59.827Z,0.60
2018-02-22T19:55:29.058Z,0.62
2018-02-22T19:57:59.098Z,0.57
2018-02-22T20:00:28.311Z,0.58
2018-02-22T20:02:57.565Z,0.60
2018-02-22T20:05:26.802Z,0.63
2018-02-22T20:07:56.080Z,0.69
2018-02-22T20:10:25.333Z,0.69
2018-02-22T20:12:54.643Z,0.69
2018-02-22T20:15:24.063Z,0.71
2018-02-22T20:17:54.084Z,0.69
2018-02-22T20:20:23.485Z,0.69
2018-02-22T20:22:53.515Z,0.74
2018-02-22T20:25:23.524Z,0.73
2018-02-22T20:27:53.519Z,0.60
2018-02-22T20:30:23.555Z,0.64
2018-02-22T20:32:53.610Z,0.65
2018-02-22T20:35:22.941Z,0.61
2018-02-22T20:37:52.186Z,0.61
2018-02-22T20:40:21.427Z,0.60
2018-02-22T20:42:50.843Z,0.50
2018-02-22T20:45:20.129Z,0.46
2018-02-22T20:47:50.135Z,0.46
2018-02-22T20:50:19.415Z,0.49
2018-02-22T20:53:05.184Z,0.51
2018-02-22T20:55:35.216Z,0.49
2018-02-22T20:58:04.454Z,0.44
2018-02-22T21:00:33.715Z,0.37
2018-02-22T21:03:02.946Z,0.35
2018-02-22T21:05:32.233Z,0.30
2018-02-22T21:08:01.468Z,0.33
2018-02-22T21:10:30.717Z,0.37
2018-02-22T21:12:59.977Z,0.31
2018-02-22T21:15:29.994Z,0.32
2018-02-22T21:18:00.039Z,0.33
2018-02-22T21:20:29.293Z,0.32
2018-02-22T21:22:58.536Z,0.36
2018-02-22T21:25:27.781Z,0.35
2018-02-22T21:27:57.028Z,0.35
2018-02-22T21:30:26.251Z,0.37
2018-02-22T21:32:55.480Z,0.36
2018-02-22T21:35:24.799Z,0.34
2018-02-22T21:37:54.802Z,0.30
2018-02-22T21:40:24.014Z,0.24
2018-02-22T21:42:54.074Z,0.19
2018-02-22T21:45:23.311Z,0.20
2018-02-22T21:47:52.600Z,0.19
2018-02-22T21:50:21.965Z,0.16
2018-02-22T21:52:51.234Z,0.19
2018-02-22T21:55:21.222Z,0.18
2018-02-22T21:57:50.653Z,0.10
2018-02-22T22:00:20.718Z,0.11
2018-02-22T22:02:49.932Z,0.04
2018-02-22T22:05:19.195Z,0.01
2018-02-22T22:07:48.422Z,0.02
2018-02-22T22:10:17.684Z,-0.05
2018-02-22T22:12:46.996Z,-0.06
2018-02-22T22:15:16.272Z,-0.07
2018-02-22T22:17:46.294Z,-0.10
2018-02-22T22:20:15.583Z,-0.08
2018-02-22T22:22:44.881Z,-0.14
2018-02-22T22:25:14.131Z,-0.13
2018-02-22T22:27:43.352Z,-0.15
2018-02-22T22:30:12.602Z,-0.19
2018-02-22T22:32:42.074Z,-0.18
2018-02-22T22:35:12.087Z,-0.20
2018-02-22T22:37:42.094Z,-0.16
2018-02-22T22:40:11.374Z,-0.08
2018-02-22T22:42:41.426Z,-0.10
2018-02-22T22:45:11.472Z,-0.13
2018-02-22T22:47:40.695Z,-0.18
2018-02-22T22:50:09.961Z,-0.18
2018-02-22T22:52:39.369Z,-0.28
2018-02-22T22:55:08.626Z,-0.34
2018-02-22T22:57:38.642Z,-0.41
2018-02-22T23:00:07.876Z,-0.47
2018-02-22T23:02:37.136Z,-0.51
2018-02-22T23:05:07.130Z,-0.52
2018-02-22T23:07:36.439Z,-0.52
2018-02-22T23:10:07.187Z,-0.54
2018-02-22T23:12:36.427Z,-0.57
2018-02-22T23:15:05.654Z,-0.56
2018-02-22T23:17:34.897Z,-0.60
2018-02-22T23:20:04.299Z,-0.59
2018-02-22T23:22:33.639Z,-0.63
2018-02-22T23:25:02.945Z,-0.64
2018-02-22T23:27:32.231Z,-0.65
2018-02-22T23:30:02.408Z,-0.68
2018-02-22T23:32:32.427Z,-0.67
2018-02-22T23:35:01.825Z,-0.70
2018-02-22T23:37:31.943Z,-0.72
2018-02-22T23:40:01.214Z,-0.75
2018-02-22T23:42:34.747Z,-0.73
2018-02-22T23:45:04.747Z,-0.70
2018-02-22T23:47:34.788Z,-0.69
2018-02-22T23:50:04.012Z,-0.67
2018-02-22T23:52:33.343Z,-0.66
2018-02-22T23:55:02.564Z,-0.69
2018-02-22T23:57:31.852Z,-0.72
